Terminal Aerodrome Forecast
Issued by NWS

Home | Current Version | Previous Version | Text Only | Print | Product List | Glossary On
Versions: 1 2 3 4 5 6 7 8 9 10 11 12 13
000
FTUS43 KLSX 021728
TAFCPS
TAF
KCPS 021728Z 0218/0318 23008KT P6SM SCT050 SCT150
     FM022300 VRB03KT P6SM SCT250
     FM031700 34005KT P6SM VCSH SCT040 SCT250=

USA.gov is the U.S. government's official web portal to all federal, state and local government web resources and services.